createdAt,value
2019-03-01T00:01:18.959Z,94892.88
2019-03-01T00:04:10.170Z,94879.74
2019-03-01T00:06:44.592Z,94880.98
2019-03-01T00:09:49.119Z,94879.11
2019-03-01T00:12:54.278Z,94875.34
2019-03-01T00:16:02.834Z,94882.15
2019-03-01T00:19:25.838Z,94885.02
2019-03-01T00:22:24.629Z,94873.78
2019-03-01T00:25:15.085Z,94867.73
2019-03-01T00:28:09.925Z,94872.89
2019-03-01T00:31:20.792Z,94857.47
2019-03-01T00:34:21.734Z,94868.32
2019-03-01T00:37:34.253Z,94866.69
2019-03-01T00:40:57.001Z,94851.28
2019-03-01T00:44:29.894Z,94846.31
2019-03-01T00:47:00.622Z,94851.88
2019-03-01T00:49:33.130Z,94826.66
2019-03-01T00:52:03.830Z,94833.85
2019-03-01T00:54:34.371Z,94816.83
2019-03-01T00:57:05.102Z,94835.31
2019-03-01T00:59:35.419Z,94848.79
2019-03-01T01:02:06.059Z,94808.98
2019-03-01T01:04:36.760Z,94847.76
2019-03-01T01:07:07.299Z,94807.70
2019-03-01T01:09:37.693Z,94824.33
2019-03-01T01:12:08.158Z,94816.06
2019-03-01T01:14:38.802Z,94825.80
2019-03-01T01:17:09.302Z,94821.43
2019-03-01T01:19:40.094Z,94823.92
2019-03-01T01:22:11.181Z,94809.16
2019-03-01T01:24:41.583Z,94827.98
2019-03-01T01:27:12.122Z,94818.73
2019-03-01T01:29:42.565Z,94824.81
2019-03-01T01:32:13.017Z,94818.59
2019-03-01T01:34:43.448Z,94825.89
2019-03-01T01:37:13.855Z,94823.76
2019-03-01T01:39:44.161Z,94815.67
2019-03-01T01:42:14.755Z,94806.61
2019-03-01T01:44:45.235Z,94810.03
2019-03-01T01:47:15.778Z,94811.31
2019-03-01T01:49:46.274Z,94800.91
2019-03-01T01:52:16.718Z,94804.27
2019-03-01T01:54:47.070Z,94802.95
2019-03-01T01:57:17.457Z,94808.81
2019-03-01T01:59:48.097Z,94800.56
2019-03-01T02:02:18.633Z,94794.09
2019-03-01T02:04:48.940Z,94807.16
2019-03-01T02:07:19.347Z,94809.36
2019-03-01T02:09:49.885Z,94816.84
2019-03-01T02:12:20.459Z,94801.55
2019-03-01T02:14:51.049Z,94814.28
2019-03-01T02:17:21.739Z,94804.89
2019-03-01T02:19:52.093Z,94805.11
2019-03-01T02:22:22.754Z,94812.68
2019-03-01T02:24:53.271Z,94785.87
2019-03-01T02:27:33.115Z,94816.06
2019-03-01T02:30:04.492Z,94804.38
2019-03-01T02:32:37.991Z,94802.53
2019-03-01T02:35:10.411Z,94800.33
2019-03-01T02:37:40.845Z,94796.81
2019-03-01T02:40:12.285Z,94820.81
2019-03-01T02:42:42.756Z,94802.72
2019-03-01T02:45:15.483Z,94829.98
2019-03-01T02:47:45.809Z,94789.87
2019-03-01T02:50:18.293Z,94859.31
2019-03-01T02:52:48.834Z,94783.94
2019-03-01T02:55:19.930Z,94842.50
2019-03-01T02:57:50.479Z,94804.57
2019-03-01T03:00:25.732Z,94829.08
2019-03-01T03:02:56.368Z,94789.53
2019-03-01T03:05:26.986Z,94841.01
2019-03-01T03:07:59.578Z,94804.20
2019-03-01T03:10:30.254Z,94830.77
2019-03-01T03:13:03.231Z,94821.50
2019-03-01T03:15:36.334Z,94822.35
2019-03-01T03:18:07.456Z,94828.53
2019-03-01T03:20:37.897Z,94827.96
2019-03-01T03:23:08.459Z,94826.45
2019-03-01T03:28:43.316Z,94830.81
2019-03-01T03:31:13.940Z,94828.27
2019-03-01T03:33:44.403Z,94846.28
2019-03-01T03:36:14.826Z,94832.13
2019-03-01T03:38:45.134Z,94849.98
2019-03-01T03:41:15.681Z,94848.00
2019-03-01T03:43:46.138Z,94848.53
2019-03-01T03:46:16.573Z,94832.53
2019-03-01T03:48:46.935Z,94852.21
2019-03-01T03:51:17.292Z,94846.18
2019-03-01T03:53:47.748Z,94852.86
2019-03-01T03:56:18.122Z,94847.95
2019-03-01T03:58:48.473Z,94837.78
2019-03-01T04:07:22.603Z,94826.58
2019-03-01T04:09:53.172Z,94834.57
2019-03-01T04:12:23.674Z,94828.31
2019-03-01T04:14:54.316Z,94816.82
2019-03-01T04:17:24.694Z,94821.98
2019-03-01T04:19:55.148Z,94843.25
2019-03-01T04:22:25.574Z,94841.84
2019-03-01T04:24:55.881Z,94841.59
2019-03-01T04:27:26.362Z,94840.98
2019-03-01T04:29:56.663Z,94839.36
2019-03-01T04:32:27.166Z,94835.52
2019-03-01T04:34:57.826Z,94839.45
2019-03-01T04:37:28.227Z,94836.64
2019-03-01T04:39:58.694Z,94833.50
2019-03-01T04:42:29.111Z,94834.36
2019-03-01T04:44:59.414Z,94838.62
2019-03-01T04:47:29.739Z,94843.39
2019-03-01T04:50:00.300Z,94840.14
2019-03-01T04:52:36.142Z,94841.41
2019-03-01T04:55:17.347Z,94841.41
2019-03-01T04:57:48.008Z,94827.18
2019-03-01T05:00:20.055Z,94827.47
2019-03-01T05:02:50.503Z,94835.67
2019-03-01T05:05:21.478Z,94836.45
2019-03-01T05:07:52.493Z,94832.55
2019-03-01T05:10:22.992Z,94840.87
2019-03-01T05:12:53.435Z,94853.95
2019-03-01T05:15:24.600Z,94858.75
2019-03-01T05:17:55.187Z,94858.24
2019-03-01T05:20:25.678Z,94857.14
2019-03-01T05:22:56.109Z,94850.95
2019-03-01T05:25:26.006Z,94850.55
2019-03-01T05:27:56.107Z,94855.59
2019-03-01T05:30:26.287Z,94855.98
2019-03-01T05:32:56.483Z,94861.33
2019-03-01T05:35:26.484Z,94865.34
2019-03-01T05:37:56.486Z,94867.95
2019-03-01T05:40:26.803Z,94857.19
2019-03-01T05:42:57.026Z,94879.06
2019-03-01T05:45:27.453Z,94853.97
2019-03-01T05:47:57.447Z,94889.06
2019-03-01T05:50:27.668Z,94868.59
2019-03-01T05:52:57.859Z,94868.86
2019-03-01T05:55:27.873Z,94865.45
2019-03-01T05:58:43.668Z,94872.17
2019-03-01T06:01:24.575Z,94875.16
2019-03-01T06:04:10.102Z,94878.58
2019-03-01T06:07:21.073Z,94875.67
2019-03-01T06:10:18.190Z,94880.77
2019-03-01T06:13:20.738Z,94642.86
2019-03-01T06:16:22.609Z,94904.17
2019-03-01T06:19:38.845Z,94878.59
2019-03-01T06:23:13.569Z,94903.39
2019-03-01T06:25:59.298Z,94886.86
2019-03-01T06:29:25.401Z,94903.41
2019-03-01T06:32:35.257Z,94880.09
2019-03-01T06:35:45.024Z,94881.45
2019-03-01T06:39:23.749Z,94877.03
2019-03-01T06:42:09.966Z,94895.67
2019-03-01T06:45:11.635Z,94888.53
2019-03-01T06:47:49.343Z,94893.91
2019-03-01T06:50:38.300Z,94898.91
2019-03-01T06:53:08.492Z,94878.58
2019-03-01T06:55:43.867Z,94890.67
2019-03-01T06:58:17.230Z,94875.27
2019-03-01T07:00:50.641Z,94890.34
2019-03-01T07:03:21.033Z,94869.88
2019-03-01T07:05:50.948Z,94872.20
2019-03-01T07:08:21.275Z,94859.69
2019-03-01T07:10:51.614Z,94870.39
2019-03-01T07:13:21.802Z,94876.41
2019-03-01T07:15:52.017Z,94881.02
2019-03-01T07:18:22.134Z,94871.71
2019-03-01T07:20:52.341Z,94877.54
2019-03-01T07:23:22.563Z,94872.02
2019-03-01T07:25:54.689Z,94870.48
2019-03-01T07:28:24.210Z,94878.86
2019-03-01T07:30:54.415Z,94875.27
2019-03-01T07:33:24.509Z,94871.52
2019-03-01T07:35:54.722Z,94871.37
2019-03-01T07:38:24.894Z,94870.07
2019-03-01T07:40:54.874Z,94858.83
2019-03-01T07:43:24.843Z,94852.54
2019-03-01T07:45:55.035Z,94858.05
2019-03-01T07:48:25.281Z,94850.88
2019-03-01T07:50:56.048Z,94847.77
2019-03-01T07:53:26.395Z,94844.50
2019-03-01T07:55:56.604Z,94840.52
2019-03-01T07:58:26.919Z,94846.93
2019-03-01T08:00:56.898Z,94842.21
2019-03-01T08:03:26.912Z,94840.91
2019-03-01T08:05:57.119Z,94833.14
2019-03-01T08:08:27.816Z,94830.42
2019-03-01T08:11:00.052Z,94831.23
2019-03-01T08:13:29.866Z,94834.91
2019-03-01T08:15:59.985Z,94835.38
2019-03-01T08:18:29.992Z,94826.83
2019-03-01T08:21:00.189Z,94825.30
2019-03-01T08:23:31.753Z,94823.88
2019-03-01T08:26:03.437Z,94829.64
2019-03-01T08:28:33.714Z,94825.58
2019-03-01T08:31:04.615Z,94814.05
2019-03-01T08:33:35.131Z,94778.48
2019-03-01T08:36:05.840Z,94816.03
2019-03-01T08:38:37.048Z,94817.09
2019-03-01T08:41:07.220Z,94815.63
2019-03-01T08:43:37.436Z,94811.23
2019-03-01T08:46:09.614Z,94802.08
2019-03-01T08:48:39.206Z,94798.47
2019-03-01T08:51:10.516Z,94791.09
2019-03-01T08:53:40.721Z,94787.99
2019-03-01T08:56:14.357Z,94787.69
2019-03-01T08:58:42.988Z,94791.67
2019-03-01T09:01:14.204Z,94788.13
2019-03-01T09:03:54.894Z,94787.35
2019-03-01T09:06:24.945Z,94785.05
2019-03-01T09:08:55.079Z,94776.72
2019-03-01T09:11:25.389Z,94773.23
2019-03-01T09:13:55.596Z,94770.52
2019-03-01T09:16:25.694Z,94761.98
2019-03-01T09:18:55.794Z,94764.98
2019-03-01T09:21:25.998Z,94761.06
2019-03-01T09:23:56.196Z,94760.13
2019-03-01T09:26:26.533Z,94757.18
2019-03-01T09:28:56.630Z,94746.19
2019-03-01T09:31:26.819Z,94749.73
2019-03-01T09:33:57.424Z,94738.42
2019-03-01T09:36:40.617Z,94749.02
2019-03-01T09:39:14.521Z,94743.35
2019-03-01T09:41:43.149Z,94745.92
2019-03-01T09:44:13.070Z,94735.42
2019-03-01T09:46:43.276Z,94714.77
2019-03-01T09:49:13.470Z,94718.42
2019-03-01T09:51:47.440Z,94718.66
2019-03-01T09:54:15.192Z,94711.09
2019-03-01T09:56:45.406Z,94710.42
2019-03-01T09:59:15.641Z,94710.34
2019-03-01T10:01:45.746Z,94699.46
2019-03-01T10:04:15.805Z,94696.88
2019-03-01T10:06:46.030Z,94689.84
2019-03-01T10:09:16.414Z,94690.61
2019-03-01T10:11:46.546Z,94699.66
2019-03-01T10:14:17.167Z,94695.98
2019-03-01T10:16:47.181Z,94685.19
2019-03-01T10:19:17.071Z,94674.38
2019-03-01T10:21:47.266Z,94663.70
2019-03-01T10:24:17.452Z,94669.86
2019-03-01T10:26:47.583Z,94654.20
2019-03-01T10:29:19.556Z,94651.83
2019-03-01T10:31:50.227Z,94657.07
2019-03-01T10:34:20.552Z,94649.77
2019-03-01T10:36:51.077Z,94634.81
2019-03-01T10:39:21.771Z,94641.10
2019-03-01T10:41:52.184Z,94639.24
2019-03-01T10:44:22.565Z,94630.13
2019-03-01T10:46:53.090Z,94628.30
2019-03-01T10:49:23.459Z,94630.00
2019-03-01T10:51:54.073Z,94615.30
2019-03-01T10:54:24.486Z,94619.49
2019-03-01T10:56:54.911Z,94608.51
2019-03-01T10:59:25.237Z,94617.20
2019-03-01T11:01:55.655Z,94613.16
2019-03-01T11:04:25.981Z,94607.98
2019-03-01T11:06:57.909Z,94607.56
2019-03-01T11:09:28.933Z,94591.91
2019-03-01T11:11:59.123Z,94588.32
2019-03-01T11:14:29.469Z,94591.46
2019-03-01T11:16:59.801Z,94586.67
2019-03-01T11:19:29.983Z,94580.19
2019-03-01T11:22:00.484Z,94569.91
2019-03-01T11:24:30.925Z,94570.59
2019-03-01T11:27:01.558Z,94561.67
2019-03-01T11:29:32.275Z,94557.59
2019-03-01T11:32:02.948Z,94550.77
2019-03-01T11:34:33.448Z,94545.77
2019-03-01T11:37:03.766Z,94543.72
2019-03-01T11:39:34.226Z,94535.41
2019-03-01T11:42:04.826Z,94529.50
2019-03-01T11:44:35.246Z,94522.83
2019-03-01T11:47:05.761Z,94524.95
2019-03-01T11:49:36.140Z,94527.27
2019-03-01T11:52:06.613Z,94519.16
2019-03-01T11:54:37.043Z,94512.83
2019-03-01T11:57:07.498Z,94509.62
2019-03-01T11:59:37.822Z,94498.38
2019-03-01T12:02:08.454Z,94496.08
2019-03-01T12:04:38.802Z,94492.45
2019-03-01T12:07:08.873Z,94483.27
2019-03-01T12:09:40.047Z,94482.42
2019-03-01T12:12:10.685Z,94474.83
2019-03-01T12:14:41.010Z,94473.53
2019-03-01T12:17:11.517Z,94468.45
2019-03-01T12:19:41.933Z,94476.95
2019-03-01T12:22:19.553Z,94477.36
2019-03-01T12:24:50.249Z,94473.56
2019-03-01T12:27:20.798Z,94474.39
2019-03-01T12:29:51.467Z,94470.15
2019-03-01T12:32:22.030Z,94467.98
2019-03-01T12:34:52.299Z,94479.26
2019-03-01T12:37:22.747Z,94468.69
2019-03-01T12:39:53.122Z,94467.95
2019-03-01T12:42:23.014Z,94463.92
2019-03-01T12:44:53.046Z,94467.45
2019-03-01T12:47:23.587Z,94470.48
2019-03-01T12:49:54.240Z,94464.05
2019-03-01T12:52:24.463Z,94463.69
2019-03-01T12:54:54.960Z,94468.39
2019-03-01T12:57:25.597Z,94461.66
2019-03-01T12:59:56.022Z,94461.25
2019-03-01T13:02:26.266Z,94463.91
2019-03-01T13:04:56.980Z,94460.55
2019-03-01T13:07:27.323Z,94459.34
2019-03-01T13:09:58.896Z,94464.38
2019-03-01T13:12:29.407Z,94465.33
2019-03-01T13:14:59.605Z,94460.00
2019-03-01T13:17:29.861Z,94463.95
2019-03-01T13:20:01.188Z,94461.67
2019-03-01T13:22:32.742Z,94453.98
2019-03-01T13:25:02.950Z,94457.64
2019-03-01T13:27:32.948Z,94451.36
2019-03-01T13:30:03.023Z,94443.60
2019-03-01T13:32:33.192Z,94449.52
2019-03-01T13:35:03.616Z,94453.69
2019-03-01T13:37:33.796Z,94457.69
2019-03-01T13:40:03.991Z,94450.80
2019-03-01T13:42:34.004Z,94455.23
2019-03-01T13:45:04.277Z,94461.00
2019-03-01T13:47:34.507Z,94458.80
2019-03-01T13:50:06.698Z,94463.68
2019-03-01T13:52:36.429Z,94457.20
2019-03-01T13:55:06.955Z,94456.62
2019-03-01T13:57:37.376Z,94460.66
2019-03-01T14:00:08.656Z,94462.02
2019-03-01T14:02:38.844Z,94465.30
2019-03-01T14:05:13.237Z,94459.87
2019-03-01T14:07:42.379Z,94452.47
2019-03-01T14:10:14.653Z,94450.06
2019-03-01T14:12:45.134Z,94443.84
2019-03-01T14:15:16.743Z,94448.25
2019-03-01T14:17:47.461Z,94436.66
2019-03-01T14:20:21.122Z,94432.13
2019-03-01T14:22:51.333Z,94430.01
2019-03-01T14:25:21.704Z,94421.25
2019-03-01T14:27:52.946Z,94429.05
2019-03-01T14:30:25.365Z,94416.53
2019-03-01T14:32:57.685Z,94409.28
2019-03-01T14:35:28.285Z,94422.52
2019-03-01T14:37:58.827Z,94415.32
2019-03-01T14:40:29.253Z,94411.41
2019-03-01T14:42:59.754Z,94415.53
2019-03-01T14:45:30.244Z,94417.21
2019-03-01T14:48:00.620Z,94414.51
2019-03-01T14:50:33.852Z,94411.34
2019-03-01T14:53:03.415Z,94416.66
2019-03-01T14:55:36.743Z,94413.76
2019-03-01T14:58:32.376Z,94413.53
2019-03-01T15:01:26.794Z,94409.88
2019-03-01T15:03:57.656Z,94408.77
2019-03-01T15:06:28.005Z,94414.92
2019-03-01T15:08:58.388Z,94408.62
2019-03-01T15:11:28.915Z,94410.45
2019-03-01T15:13:59.642Z,94426.86
2019-03-01T15:16:29.928Z,94425.20
2019-03-01T15:19:00.178Z,94422.23
2019-03-01T15:21:30.336Z,94424.38
2019-03-01T15:24:01.480Z,94422.72
2019-03-01T15:26:32.917Z,94423.77
2019-03-01T15:29:03.119Z,94424.81
2019-03-01T15:31:33.271Z,94426.89
2019-03-01T15:34:03.496Z,94435.88
2019-03-01T15:36:33.684Z,94436.02
2019-03-01T15:39:05.381Z,94435.52
2019-03-01T15:41:35.598Z,94432.89
2019-03-01T15:44:05.748Z,94435.06
2019-03-01T15:46:35.768Z,94438.09
2019-03-01T15:49:06.016Z,94433.77
2019-03-01T15:51:38.209Z,94428.61
2019-03-01T15:54:08.041Z,94432.88
2019-03-01T15:56:39.554Z,94432.42
2019-03-01T15:59:10.449Z,94424.92
2019-03-01T16:01:43.706Z,94430.23
2019-03-01T16:04:12.486Z,94428.68
2019-03-01T16:06:42.500Z,94424.56
2019-03-01T16:09:21.730Z,94429.44
2019-03-01T16:11:53.211Z,94433.77
2019-03-01T16:14:24.157Z,94432.38
2019-03-01T16:16:55.406Z,94433.64
2019-03-01T16:19:25.478Z,94436.54
2019-03-01T16:21:55.500Z,94440.74
2019-03-01T16:24:25.712Z,94439.13
2019-03-01T16:26:55.910Z,94437.63
2019-03-01T16:29:26.023Z,94437.27
2019-03-01T16:31:56.043Z,94439.30
2019-03-01T16:34:26.326Z,94443.56
2019-03-01T16:36:58.828Z,94435.70
2019-03-01T16:39:28.935Z,94442.73
2019-03-01T16:41:59.058Z,94437.82
2019-03-01T16:44:29.253Z,94435.91
2019-03-01T16:46:59.438Z,94446.61
2019-03-01T16:49:29.359Z,94446.32
2019-03-01T16:51:59.471Z,94448.90
2019-03-01T16:54:30.175Z,94453.09
2019-03-01T16:57:00.212Z,94449.05
2019-03-01T16:59:30.565Z,94459.05
2019-03-01T17:02:06.179Z,94460.59
2019-03-01T17:04:32.495Z,94470.66
2019-03-01T17:07:04.437Z,94466.31
2019-03-01T17:09:34.420Z,94458.05
2019-03-01T17:12:04.609Z,94466.41
2019-03-01T17:14:38.441Z,94469.00
2019-03-01T17:17:07.165Z,94472.59
2019-03-01T17:19:37.401Z,94476.58
2019-03-01T17:22:07.730Z,94480.80
2019-03-01T17:24:37.735Z,94478.77
2019-03-01T17:27:07.800Z,94486.84
2019-03-01T17:29:39.040Z,94486.75
2019-03-01T17:32:09.899Z,94492.02
2019-03-01T17:34:39.916Z,94492.50
2019-03-01T17:37:10.133Z,94496.27
2019-03-01T17:39:40.172Z,94502.86
2019-03-01T17:42:10.125Z,94506.00
2019-03-01T17:44:41.408Z,94503.97
2019-03-01T17:47:12.268Z,94504.23
2019-03-01T17:49:42.303Z,94510.37
2019-03-01T17:52:13.721Z,94512.13
2019-03-01T17:54:44.011Z,94506.22
2019-03-01T17:57:14.206Z,94508.34
2019-03-01T17:59:44.697Z,94505.29
2019-03-01T18:02:15.861Z,94506.26
2019-03-01T18:04:46.152Z,94505.00
2019-03-01T18:07:16.342Z,94502.31
2019-03-01T18:09:46.277Z,94507.86
2019-03-01T18:12:17.497Z,94506.63
2019-03-01T18:14:48.451Z,94504.77
2019-03-01T18:17:18.473Z,94506.52
2019-03-01T18:19:48.674Z,94509.47
2019-03-01T18:22:18.881Z,94509.25
2019-03-01T18:24:49.964Z,94516.79
2019-03-01T18:27:20.692Z,94511.25
2019-03-01T18:29:50.899Z,94512.14
2019-03-01T18:32:21.094Z,94521.45
2019-03-01T18:34:50.984Z,94519.73
2019-03-01T18:37:20.903Z,94518.34
2019-03-01T18:39:51.172Z,94523.04
2019-03-01T18:42:21.379Z,94530.28
2019-03-01T18:44:51.368Z,94527.14
2019-03-01T18:47:21.295Z,94535.67
2019-03-01T18:49:55.202Z,94531.08
2019-03-01T18:52:23.454Z,94529.63
2019-03-01T18:54:53.403Z,94531.70
2019-03-01T18:57:23.620Z,94529.92
2019-03-01T18:59:56.438Z,94527.30
2019-03-01T19:02:27.643Z,94533.58
2019-03-01T19:04:57.078Z,94525.45
2019-03-01T19:07:28.435Z,94534.63
2019-03-01T19:09:58.688Z,94529.56
2019-03-01T19:12:28.724Z,94531.00
2019-03-01T19:14:59.342Z,94535.64
2019-03-01T19:17:29.659Z,94531.09
2019-03-01T19:20:02.068Z,94535.42
2019-03-01T19:22:31.326Z,94534.86
2019-03-01T19:25:01.527Z,94541.01
2019-03-01T19:27:31.719Z,94543.25
2019-03-01T19:30:01.631Z,94539.90
2019-03-01T19:32:31.655Z,94541.22
2019-03-01T19:35:01.852Z,94543.92
2019-03-01T19:37:32.066Z,94545.46
2019-03-01T19:40:01.997Z,94551.44
2019-03-01T19:42:33.135Z,94537.91
2019-03-01T19:45:04.929Z,94547.15
2019-03-01T19:47:35.847Z,94544.39
2019-03-01T19:50:06.455Z,94546.48
2019-03-01T19:52:36.379Z,94555.94
2019-03-01T19:55:08.043Z,94561.33
2019-03-01T19:57:39.172Z,94555.53
2019-03-01T20:00:12.446Z,94558.63
2019-03-01T20:02:42.561Z,94555.24
2019-03-01T20:05:15.440Z,94553.92
2019-03-01T20:07:45.784Z,94553.75
2019-03-01T20:10:16.931Z,94552.19
2019-03-01T20:12:47.080Z,94556.09
2019-03-01T20:15:20.656Z,94558.20
2019-03-01T20:17:50.941Z,94559.75
2019-03-01T20:20:21.837Z,94558.84
2019-03-01T20:22:54.092Z,94553.13
2019-03-01T20:25:23.865Z,94552.37
2019-03-01T20:27:53.900Z,94552.27
2019-03-01T20:30:28.723Z,94558.24
2019-03-01T20:32:56.790Z,94558.86
2019-03-01T20:35:26.968Z,94554.66
2019-03-01T20:38:00.278Z,94557.42
2019-03-01T20:40:29.490Z,94558.97
2019-03-01T20:43:04.693Z,94561.09
2019-03-01T20:45:31.604Z,94561.56
2019-03-01T20:48:01.631Z,94555.31
2019-03-01T20:50:31.902Z,94564.38
2019-03-01T20:53:02.093Z,94562.80
2019-03-01T20:55:33.243Z,94567.13
2019-03-01T20:58:04.350Z,94571.30
2019-03-01T21:00:34.490Z,94570.48
2019-03-01T21:03:04.493Z,94570.30
2019-03-01T21:05:34.724Z,94569.32
2019-03-01T21:08:04.921Z,94572.63
2019-03-01T21:10:35.009Z,94568.95
2019-03-01T21:13:05.046Z,94573.89
2019-03-01T21:15:37.674Z,94572.44
2019-03-01T21:18:07.685Z,94570.66
2019-03-01T21:20:37.647Z,94573.98
2019-03-01T21:23:07.814Z,94572.18
2019-03-01T21:25:39.747Z,94571.72
2019-03-01T21:28:10.013Z,94568.63
2019-03-01T21:30:40.013Z,94566.63
2019-03-01T21:33:09.914Z,94567.48
2019-03-01T21:35:40.100Z,94567.18
2019-03-01T21:38:13.941Z,94569.47
2019-03-01T21:40:43.138Z,94571.31
2019-03-01T21:43:13.331Z,94570.00
2019-03-01T21:45:43.365Z,94572.42
2019-03-01T21:48:13.396Z,94568.74
2019-03-01T21:50:43.642Z,94563.48
2019-03-01T21:53:13.891Z,94559.56
2019-03-01T21:55:43.904Z,94558.81
2019-03-01T21:58:13.793Z,94555.97
2019-03-01T22:00:43.998Z,94562.16
2019-03-01T22:03:14.597Z,94562.14
2019-03-01T22:05:45.400Z,94559.50
2019-03-01T22:08:16.109Z,94561.66
2019-03-01T22:10:46.319Z,94555.11
2019-03-01T22:13:16.531Z,94556.94
2019-03-01T22:15:47.061Z,94557.02
2019-03-01T22:18:20.381Z,94560.98
2019-03-01T22:20:49.151Z,94561.23
2019-03-01T22:23:19.390Z,94555.66
2019-03-01T22:25:49.589Z,94556.58
2019-03-01T22:28:21.294Z,94556.06
2019-03-01T22:30:51.434Z,94555.96
2019-03-01T22:33:22.118Z,94556.48
2019-03-01T22:35:52.682Z,94558.35
2019-03-01T22:38:22.870Z,94558.87
2019-03-01T22:40:52.872Z,94560.23
2019-03-01T22:43:26.221Z,94558.37
2019-03-01T22:45:54.758Z,94554.95
2019-03-01T22:48:24.940Z,94547.27
2019-03-01T22:50:54.834Z,94547.77
2019-03-01T22:53:24.838Z,94554.41
2019-03-01T22:55:55.021Z,94552.30
2019-03-01T22:58:24.941Z,94551.07
2019-03-01T23:01:32.697Z,94558.50
2019-03-01T23:04:04.176Z,94557.45
2019-03-01T23:06:34.293Z,94557.69
2019-03-01T23:09:10.138Z,94565.81
2019-03-01T23:11:38.759Z,94569.23
2019-03-01T23:14:08.986Z,94569.13
2019-03-01T23:16:39.038Z,94581.86
2019-03-01T23:19:12.624Z,94578.34
2019-03-01T23:21:41.386Z,94585.41
2019-03-01T23:24:11.670Z,94584.73
2019-03-01T23:26:41.889Z,94587.77
2019-03-01T23:29:11.812Z,94590.67
2019-03-01T23:31:42.079Z,94588.86
2019-03-01T23:34:12.296Z,94589.88
2019-03-01T23:36:42.417Z,94588.52
2019-03-01T23:39:12.622Z,94589.57
2019-03-01T23:41:43.517Z,94585.55
2019-03-01T23:44:14.291Z,94580.78
2019-03-01T23:46:44.500Z,94591.17
2019-03-01T23:49:14.812Z,94579.22
2019-03-01T23:51:45.412Z,94576.06
2019-03-01T23:54:16.240Z,94579.45
2019-03-01T23:56:46.483Z,94578.15
2019-03-01T23:59:16.702Z,94580.78
